createdAt,value
2023-04-25T01:54:05.443Z,20.07
2023-04-25T01:56:33.538Z,15.57
2023-04-25T01:59:00.920Z,17.70
2023-04-25T02:01:27.432Z,16.07
2023-04-25T02:03:54.718Z,15.27
2023-04-25T02:06:21.692Z,13.23
2023-04-25T02:08:48.627Z,18.58
2023-04-25T02:11:15.470Z,12.65
2023-04-25T02:13:41.913Z,12.73
2023-04-25T02:16:08.924Z,14.93
2023-04-25T02:18:35.523Z,16.77
2023-04-25T02:21:02.446Z,17.13
2023-04-25T02:23:29.571Z,17.27
2023-04-25T02:25:58.013Z,14.00
2023-04-25T02:28:25.394Z,13.50
2023-04-25T02:30:52.455Z,17.47
2023-04-25T02:33:18.892Z,17.13
2023-04-25T02:35:45.735Z,14.60
2023-04-25T02:38:12.409Z,13.93
2023-04-25T02:40:38.874Z,13.67
2023-04-25T02:43:05.665Z,22.03
2023-04-25T02:45:32.178Z,15.40
2023-04-25T02:47:59.125Z,19.90
2023-04-25T02:50:25.712Z,18.63
2023-04-25T02:52:52.513Z,17.70
2023-04-25T02:55:19.003Z,18.03
2023-04-25T02:57:45.466Z,17.30
2023-04-25T03:00:12.912Z,16.73
2023-04-25T03:02:39.545Z,17.83
2023-04-25T03:05:06.514Z,18.40
2023-04-25T03:07:32.956Z,15.90
2023-04-25T03:09:59.736Z,20.97
2023-04-25T03:12:26.172Z,14.57
2023-04-25T03:14:53.001Z,19.43
2023-04-25T03:17:19.458Z,20.90
2023-04-25T03:19:46.310Z,19.67
2023-04-25T03:22:12.772Z,16.27
2023-04-25T03:24:39.247Z,14.87
2023-04-25T03:27:06.100Z,23.20
2023-04-25T03:29:32.615Z,18.23
2023-04-25T03:31:59.558Z,17.27
2023-04-25T03:34:26.114Z,18.27
2023-04-25T03:36:53.111Z,17.40
2023-04-25T03:39:19.545Z,19.73
2023-04-25T03:41:46.275Z,17.60
2023-04-25T03:44:12.716Z,22.73
2023-04-25T03:46:39.529Z,19.90
2023-04-25T03:49:05.996Z,18.33
2023-04-25T03:51:32.496Z,18.47
2023-04-25T03:53:59.390Z,26.98
2023-04-25T03:56:25.893Z,20.80
2023-04-25T03:58:52.904Z,19.23
2023-04-25T04:01:19.342Z,24.23
2023-04-25T04:03:46.346Z,20.30
2023-04-25T04:06:12.912Z,21.23
2023-04-25T04:08:39.699Z,25.63
2023-04-25T04:11:06.474Z,27.23
2023-04-25T04:13:32.946Z,25.53
2023-04-25T04:15:59.842Z,23.87
2023-04-25T04:18:26.328Z,19.63
2023-04-25T04:20:53.019Z,23.43
2023-04-25T04:23:20.433Z,17.88
2023-04-25T04:25:47.167Z,19.13
2023-04-25T04:28:13.810Z,16.88
2023-04-25T04:30:40.399Z,17.10
2023-04-25T04:33:07.219Z,23.85
2023-04-25T04:35:33.846Z,23.20
2023-04-25T04:38:00.524Z,20.90
2023-04-25T04:40:27.122Z,19.70
2023-04-25T04:42:53.965Z,22.30
2023-04-25T04:45:20.476Z,21.73
2023-04-25T04:47:47.551Z,21.15
2023-04-25T04:50:14.478Z,20.05
2023-04-25T04:52:41.081Z,20.80
2023-04-25T04:55:08.040Z,24.00
2023-04-25T04:57:35.030Z,18.87
2023-04-25T05:00:01.556Z,17.67
2023-04-25T05:02:28.333Z,21.20
2023-04-25T05:04:57.473Z,16.27
2023-04-25T05:07:24.216Z,17.47
2023-04-25T05:09:51.007Z,15.85
2023-04-25T05:12:17.472Z,18.33
2023-04-25T05:14:44.414Z,19.33
2023-04-25T05:17:11.009Z,18.10
2023-04-25T05:19:37.877Z,19.10
2023-04-25T05:22:04.376Z,15.00
2023-04-25T05:24:31.420Z,20.07
2023-04-25T05:26:58.026Z,20.13
2023-04-25T05:29:24.846Z,13.90
2023-04-25T05:31:51.380Z,18.58
2023-04-25T05:34:18.258Z,15.13
2023-04-25T05:36:44.946Z,16.13
2023-04-25T05:39:11.400Z,16.30
2023-04-25T05:41:38.245Z,16.63
2023-04-25T05:44:04.791Z,15.70
2023-04-25T05:46:31.432Z,11.37
2023-04-25T05:48:58.035Z,12.07
2023-04-25T05:51:25.122Z,10.20
2023-04-25T05:53:51.950Z,12.57
2023-04-25T05:56:18.661Z,16.40
2023-04-25T05:58:45.136Z,17.63
2023-04-25T06:01:13.032Z,15.80
2023-04-25T06:03:40.236Z,15.00
2023-04-25T06:06:07.157Z,15.23
2023-04-25T06:08:33.977Z,14.20
2023-04-25T06:11:00.470Z,17.47
2023-04-25T06:13:27.385Z,18.30
2023-04-25T06:15:53.862Z,17.70
2023-04-25T06:18:20.711Z,16.80
2023-04-25T06:20:47.361Z,13.33
2023-04-25T06:23:14.231Z,10.90
2023-04-25T06:25:40.720Z,16.27
2023-04-25T06:28:07.556Z,14.30
2023-04-25T06:30:34.017Z,14.33
2023-04-25T06:33:00.801Z,15.77
2023-04-25T06:35:27.288Z,14.37
2023-04-25T06:37:53.758Z,11.30
2023-04-25T06:40:20.683Z,11.47
2023-04-25T06:42:47.143Z,15.17
2023-04-25T06:45:14.042Z,9.93
2023-04-25T06:47:40.613Z,10.63
2023-04-25T06:50:07.629Z,13.90
2023-04-25T06:52:34.496Z,14.53
2023-04-25T06:55:00.977Z,12.83
2023-04-25T06:57:27.844Z,13.97
2023-04-25T06:59:54.327Z,11.43
2023-04-25T07:02:20.873Z,9.53
2023-04-25T07:04:47.526Z,12.70
2023-04-25T07:07:14.357Z,10.70
2023-04-25T07:09:41.204Z,11.87
2023-04-25T07:12:07.694Z,11.10
2023-04-25T07:14:34.573Z,11.47
2023-04-25T07:17:01.100Z,8.67
2023-04-25T07:19:27.694Z,9.27
2023-04-25T07:21:54.451Z,6.47
2023-04-25T07:24:20.969Z,11.23
2023-04-25T07:26:47.531Z,11.53
2023-04-25T07:29:14.465Z,10.40
2023-04-25T07:31:41.054Z,6.97
2023-04-25T07:34:07.563Z,6.73
2023-04-25T07:36:34.126Z,7.00
2023-04-25T07:39:00.589Z,11.07
2023-04-25T07:41:27.517Z,8.03
2023-04-25T07:43:54.009Z,6.73
2023-04-25T07:46:20.596Z,4.23
2023-04-25T07:48:47.223Z,8.80
2023-04-25T07:51:13.750Z,12.93
2023-04-25T07:53:40.650Z,7.17
2023-04-25T07:56:07.480Z,8.87
2023-04-25T07:58:34.341Z,8.53
2023-04-25T08:01:00.878Z,4.20
2023-04-25T08:03:27.934Z,5.27
2023-04-25T08:05:54.720Z,8.03
2023-04-25T08:08:21.643Z,9.60
2023-04-25T08:10:48.503Z,3.70
2023-04-25T08:13:15.406Z,8.07
2023-04-25T08:15:42.173Z,6.13
2023-04-25T08:18:09.280Z,9.37
2023-04-25T08:20:35.850Z,4.27
2023-04-25T08:23:02.347Z,7.50
2023-04-25T08:25:28.812Z,7.30
2023-04-25T08:27:55.616Z,6.30
2023-04-25T08:30:22.429Z,8.93
2023-04-25T08:32:49.427Z,6.53
2023-04-25T08:35:16.407Z,8.57
2023-04-25T08:37:42.873Z,8.67
2023-04-25T08:40:14.666Z,7.70
2023-04-25T08:42:43.204Z,8.80
2023-04-25T08:45:10.912Z,7.50
2023-04-25T08:47:39.162Z,5.70
2023-04-25T08:50:06.679Z,6.23
2023-04-25T08:52:45.599Z,8.27
2023-04-25T08:55:14.037Z,6.37
2023-04-25T08:57:44.102Z,4.40
2023-04-25T09:00:12.174Z,7.93
2023-04-25T09:02:40.630Z,8.67
2023-04-25T09:05:08.430Z,7.87
2023-04-25T09:07:34.887Z,6.50
2023-04-25T09:10:01.415Z,4.87
2023-04-25T09:12:29.647Z,6.03
2023-04-25T09:15:08.197Z,4.30
2023-04-25T09:17:35.159Z,6.20
2023-04-25T09:20:10.412Z,3.67
2023-04-25T09:22:38.076Z,8.13
2023-04-25T09:25:14.272Z,5.93
2023-04-25T09:27:52.003Z,7.17
2023-04-25T09:30:18.649Z,5.53
2023-04-25T09:32:45.351Z,6.10
2023-04-25T09:35:23.835Z,5.97
2023-04-25T09:37:51.254Z,5.40
2023-04-25T09:40:19.239Z,5.47
2023-04-25T09:42:45.726Z,5.20
2023-04-25T09:45:14.531Z,7.27
2023-04-25T09:47:41.347Z,6.20
2023-04-25T09:50:16.025Z,5.70
2023-04-25T09:52:42.612Z,5.40
2023-04-25T09:55:09.550Z,6.33
2023-04-25T09:57:36.777Z,5.10
2023-04-25T10:00:03.665Z,6.80
2023-04-25T10:02:30.296Z,5.13
2023-04-25T10:04:57.444Z,3.20
2023-04-25T10:07:26.787Z,5.00
2023-04-25T10:10:00.383Z,3.43
2023-04-25T10:12:27.734Z,5.83
2023-04-25T10:14:55.401Z,4.87
2023-04-25T10:17:22.036Z,4.27
2023-04-25T10:19:49.804Z,4.47
2023-04-25T10:22:24.494Z,4.40
2023-04-25T10:24:52.245Z,7.50
2023-04-25T10:27:18.876Z,4.60
2023-04-25T10:29:45.349Z,5.13
2023-04-25T10:32:12.301Z,5.23
2023-04-25T10:34:41.008Z,3.93
2023-04-25T10:37:10.807Z,4.17
2023-04-25T10:39:40.335Z,7.80
2023-04-25T10:42:07.147Z,4.97
2023-04-25T10:44:33.602Z,4.53
2023-04-25T10:47:02.042Z,4.73
2023-04-25T10:49:35.713Z,6.40
2023-04-25T10:52:18.300Z,6.03
2023-04-25T10:54:55.351Z,6.17
2023-04-25T10:57:53.058Z,5.97
2023-04-25T11:00:21.323Z,6.97
2023-04-25T11:02:49.069Z,7.03
2023-04-25T11:05:21.799Z,4.30
2023-04-25T11:08:03.774Z,5.33
2023-04-25T11:10:34.605Z,5.40
2023-04-25T11:13:01.931Z,6.20
2023-04-25T11:15:28.746Z,5.67
2023-04-25T11:17:56.076Z,4.53
2023-04-25T11:20:23.241Z,3.60
2023-04-25T11:22:51.660Z,4.73
2023-04-25T11:25:19.351Z,7.03
2023-04-25T11:27:53.817Z,2.93
2023-04-25T11:30:21.876Z,2.97
2023-04-25T11:32:48.661Z,3.00
2023-04-25T11:35:15.388Z,3.37
2023-04-25T11:37:44.099Z,4.10
2023-04-25T11:40:11.832Z,4.00
2023-04-25T11:42:47.341Z,5.40
2023-04-25T11:45:15.753Z,4.50
2023-04-25T11:47:42.471Z,4.20
2023-04-25T11:50:10.039Z,3.47
2023-04-25T11:52:44.635Z,4.93
2023-04-25T11:55:15.820Z,6.53
2023-04-25T11:57:44.107Z,5.67
2023-04-25T12:00:12.359Z,4.13
2023-04-25T12:02:46.156Z,4.47
2023-04-25T12:05:30.568Z,5.00
2023-04-25T12:07:58.969Z,5.23
2023-04-25T12:10:25.995Z,3.40
2023-04-25T12:12:53.086Z,5.13
2023-04-25T12:15:25.389Z,5.83
2023-04-25T12:17:54.187Z,3.57
2023-04-25T12:20:25.070Z,6.50
2023-04-25T12:22:53.532Z,3.90
2023-04-25T12:25:39.486Z,3.90
2023-04-25T12:28:18.839Z,5.87
2023-04-25T12:31:05.385Z,6.00
2023-04-25T12:33:38.799Z,5.57
2023-04-25T12:36:06.996Z,5.77
2023-04-25T12:38:38.459Z,5.10
2023-04-25T12:41:04.969Z,7.40
2023-04-25T12:43:31.730Z,7.73
2023-04-25T12:45:58.624Z,3.73
2023-04-25T12:48:25.862Z,4.70
2023-04-25T12:50:52.687Z,4.67
2023-04-25T12:53:23.868Z,3.53
2023-04-25T12:55:51.217Z,4.60
2023-04-25T12:58:19.358Z,3.97
2023-04-25T13:00:47.164Z,2.63
2023-04-25T13:03:14.403Z,5.03
2023-04-25T13:05:41.617Z,5.03
2023-04-25T13:08:08.194Z,4.07
2023-04-25T13:10:34.781Z,3.60
2023-04-25T13:13:01.438Z,4.23
2023-04-25T13:15:28.218Z,5.40
2023-04-25T13:17:54.788Z,4.63
2023-04-25T13:20:21.395Z,3.53
2023-04-25T13:22:48.275Z,4.00
2023-04-25T13:25:14.903Z,5.80
2023-04-25T13:27:41.751Z,4.10
2023-04-25T13:30:08.612Z,3.03
2023-04-25T13:32:36.529Z,6.20
2023-04-25T13:35:07.805Z,3.13
2023-04-25T13:37:36.286Z,3.80
2023-04-25T13:40:05.553Z,2.80
2023-04-25T13:42:33.036Z,3.50
2023-04-25T13:45:00.050Z,5.13
2023-04-25T13:47:27.453Z,4.03
2023-04-25T13:49:54.204Z,5.00
2023-04-25T13:52:20.822Z,3.97
2023-04-25T13:54:47.457Z,4.53
2023-04-25T13:57:14.054Z,5.80
2023-04-25T13:59:40.651Z,5.00
2023-04-25T14:02:08.088Z,5.37
2023-04-25T14:04:34.826Z,3.67
2023-04-25T14:07:01.384Z,4.73
2023-04-25T14:09:27.904Z,7.67
2023-04-25T14:11:55.012Z,4.63
2023-04-25T14:14:22.773Z,3.97
2023-04-25T14:16:50.052Z,5.57
2023-04-25T14:19:16.897Z,8.00
2023-04-25T14:21:44.246Z,5.20
2023-04-25T14:24:11.220Z,4.07
2023-04-25T14:26:38.331Z,4.67
2023-04-25T14:29:06.455Z,7.03
2023-04-25T14:31:33.164Z,3.57
2023-04-25T14:34:00.027Z,5.40
2023-04-25T14:36:28.707Z,2.77
2023-04-25T14:38:55.760Z,5.30
2023-04-25T14:41:22.266Z,2.73
2023-04-25T14:43:49.331Z,4.43
2023-04-25T14:46:16.029Z,6.00
2023-04-25T14:48:43.510Z,4.23
2023-04-25T14:51:10.401Z,6.53
2023-04-25T14:53:36.873Z,3.87
2023-04-25T14:56:04.008Z,3.30
2023-04-25T14:58:32.088Z,3.37
2023-04-25T15:00:59.356Z,3.87
2023-04-25T15:03:26.142Z,4.50
2023-04-25T15:05:56.443Z,2.40
2023-04-25T15:08:22.911Z,5.97
2023-04-25T15:10:49.956Z,3.57
2023-04-25T15:13:18.721Z,5.63
2023-04-25T15:15:45.187Z,3.50
2023-04-25T15:18:11.915Z,3.00
2023-04-25T15:20:38.460Z,1.97
2023-04-25T15:23:05.335Z,5.07
2023-04-25T15:25:31.840Z,6.07
2023-04-25T15:27:58.291Z,3.07
2023-04-25T15:30:24.908Z,3.77
2023-04-25T15:32:51.415Z,3.40
2023-04-25T15:35:17.977Z,2.67
2023-04-25T15:37:44.829Z,4.47
2023-04-25T15:40:13.922Z,6.30
2023-04-25T15:42:43.102Z,4.23
2023-04-25T15:45:11.584Z,6.70
2023-04-25T15:47:38.860Z,4.10
2023-04-25T15:50:07.499Z,4.07
2023-04-25T15:52:34.963Z,3.43
2023-04-25T15:55:01.461Z,6.33
2023-04-25T15:57:28.061Z,3.37
2023-04-25T15:59:54.564Z,4.97
2023-04-25T16:02:21.598Z,3.63
2023-04-25T16:04:48.272Z,4.33
2023-04-25T16:07:15.584Z,5.80
2023-04-25T16:09:42.144Z,4.07
2023-04-25T16:12:11.223Z,5.40
2023-04-25T16:14:37.710Z,4.07
2023-04-25T16:17:04.238Z,4.67
2023-04-25T16:19:31.047Z,3.27
2023-04-25T16:21:57.517Z,3.90
2023-04-25T16:24:24.330Z,2.93
2023-04-25T16:26:50.811Z,6.20
2023-04-25T16:29:17.344Z,4.07
2023-04-25T16:31:44.112Z,4.70
2023-04-25T16:34:10.809Z,5.40
2023-04-25T16:36:37.282Z,3.97
2023-04-25T16:39:03.820Z,3.90
2023-04-25T16:41:30.537Z,2.63
2023-04-25T16:43:57.012Z,4.80
2023-04-25T16:46:24.139Z,6.60
2023-04-25T16:48:50.819Z,5.73
2023-04-25T16:51:18.217Z,4.97
2023-04-25T16:53:44.717Z,3.60
2023-04-25T16:56:11.536Z,4.77
2023-04-25T16:58:37.974Z,3.20
2023-04-25T17:01:04.945Z,4.70
2023-04-25T17:03:33.099Z,5.87
2023-04-25T17:06:01.453Z,7.07
2023-04-25T17:08:28.223Z,5.20
2023-04-25T17:10:55.171Z,3.43
2023-04-25T17:13:21.636Z,5.50
2023-04-25T17:15:57.412Z,8.03
2023-04-25T17:18:24.627Z,6.17
2023-04-25T17:20:51.564Z,5.37
2023-04-25T17:23:18.659Z,8.63
2023-04-25T17:25:45.220Z,5.57
2023-04-25T17:28:11.729Z,3.60
2023-04-25T17:30:38.658Z,7.03
2023-04-25T17:33:05.488Z,5.00
2023-04-25T17:35:32.327Z,4.97
2023-04-25T17:37:59.416Z,4.60
2023-04-25T17:40:26.138Z,7.33
2023-04-25T17:42:52.623Z,5.00
2023-04-25T17:45:19.186Z,3.60
2023-04-25T17:47:45.671Z,5.47
2023-04-25T17:50:12.208Z,5.83
2023-04-25T17:52:38.941Z,4.07
2023-04-25T17:55:06.518Z,3.60
2023-04-25T17:57:33.219Z,6.37
2023-04-25T17:59:59.678Z,5.97
2023-04-25T18:02:27.006Z,6.73
2023-04-25T18:04:53.714Z,6.33
2023-04-25T18:07:20.193Z,5.80
2023-04-25T18:09:46.676Z,7.73
2023-04-25T18:12:13.154Z,4.20
2023-04-25T18:14:39.666Z,6.30
2023-04-25T18:17:06.170Z,8.20
2023-04-25T18:19:32.649Z,7.20
2023-04-25T18:21:59.259Z,4.53
2023-04-25T18:24:27.365Z,4.63
2023-04-25T18:26:54.599Z,5.20
2023-04-25T18:29:32.041Z,7.83
2023-04-25T18:31:59.378Z,3.83
2023-04-25T18:34:27.287Z,4.77
2023-04-25T18:36:54.378Z,5.33
2023-04-25T18:39:23.028Z,4.93
2023-04-25T18:41:56.505Z,4.77
2023-04-25T18:44:26.818Z,6.23
2023-04-25T18:46:53.253Z,5.00
2023-04-25T18:49:20.054Z,3.73
2023-04-25T18:51:46.539Z,9.10
2023-04-25T18:54:13.093Z,5.93
2023-04-25T18:56:39.956Z,5.60
2023-04-25T18:59:06.442Z,3.80
2023-04-25T19:01:33.457Z,3.13
2023-04-25T19:04:00.528Z,3.73
2023-04-25T19:06:28.625Z,3.07
2023-04-25T19:08:56.525Z,6.93
2023-04-25T19:11:23.571Z,6.60
2023-04-25T19:13:51.030Z,4.53
2023-04-25T19:16:18.194Z,3.73
2023-04-25T19:18:46.218Z,4.87
2023-04-25T19:21:13.050Z,5.80
2023-04-25T19:23:40.245Z,4.23
2023-04-25T19:26:06.810Z,3.93
2023-04-25T19:28:33.281Z,3.33
2023-04-25T19:30:59.881Z,5.07
2023-04-25T19:33:26.681Z,3.57
2023-04-25T19:35:53.574Z,7.20
2023-04-25T19:38:20.038Z,4.10
2023-04-25T19:40:46.802Z,3.63
2023-04-25T19:43:13.491Z,4.57
2023-04-25T19:45:40.266Z,5.53
2023-04-25T19:48:07.228Z,4.07
2023-04-25T19:50:34.185Z,8.80
2023-04-25T19:53:00.687Z,5.80
2023-04-25T19:55:27.485Z,4.80
2023-04-25T19:57:54.044Z,7.60
2023-04-25T20:00:20.591Z,7.80
2023-04-25T20:02:47.191Z,6.90
2023-04-25T20:05:17.697Z,6.57
2023-04-25T20:07:44.200Z,6.47
2023-04-25T20:10:11.574Z,8.60
2023-04-25T20:12:38.633Z,5.53
2023-04-25T20:15:05.956Z,6.80
2023-04-25T20:17:32.898Z,8.13
2023-04-25T20:19:59.448Z,6.60
2023-04-25T20:22:26.339Z,6.00
2023-04-25T20:24:52.788Z,4.35
2023-04-25T20:27:19.328Z,10.53
2023-04-25T20:29:45.783Z,6.50
2023-04-25T20:32:12.426Z,7.77
2023-04-25T20:34:39.012Z,10.38
2023-04-25T20:37:05.520Z,7.40
2023-04-25T20:39:32.300Z,9.05
2023-04-25T20:41:58.773Z,7.40
2023-04-25T20:44:25.602Z,10.70
2023-04-25T20:46:52.122Z,7.77
2023-04-25T20:49:18.633Z,9.30
2023-04-25T20:51:45.121Z,6.30
2023-04-25T20:54:11.572Z,12.43
2023-04-25T20:56:38.038Z,7.30
2023-04-25T20:59:04.540Z,7.93
2023-04-25T21:01:31.165Z,6.45
2023-04-25T21:03:58.278Z,4.20
2023-04-25T21:06:25.372Z,7.22
2023-04-25T21:08:52.189Z,7.00
2023-04-25T21:11:19.712Z,20.65
2023-04-25T21:13:46.579Z,5.03
2023-04-25T21:16:13.031Z,6.45
2023-04-25T21:18:39.823Z,7.05
2023-04-25T21:21:06.325Z,7.10
2023-04-25T21:23:33.236Z,6.40
2023-04-25T21:25:59.663Z,7.53
2023-04-25T21:28:26.535Z,9.93
2023-04-25T21:30:53.180Z,11.27
2023-04-25T21:33:19.749Z,6.10
2023-04-25T21:35:46.684Z,8.20
2023-04-25T21:38:13.188Z,11.73
2023-04-25T21:40:40.578Z,8.52
2023-04-25T21:43:07.465Z,8.95
2023-04-25T21:45:37.833Z,7.13
2023-04-25T21:48:11.255Z,7.53
2023-04-25T21:50:38.194Z,6.70
2023-04-25T21:53:04.671Z,9.10
2023-04-25T21:55:31.510Z,6.63
2023-04-25T21:57:57.985Z,8.10
2023-04-25T22:00:24.984Z,5.47
2023-04-25T22:02:52.007Z,5.63
2023-04-25T22:05:18.711Z,6.30
2023-04-25T22:07:46.258Z,8.15
2023-04-25T22:10:12.842Z,7.10
2023-04-25T22:12:39.633Z,6.80
2023-04-25T22:15:06.724Z,8.65
2023-04-25T22:17:33.741Z,9.38
2023-04-25T22:20:01.193Z,12.63
2023-04-25T22:22:27.814Z,10.82
2023-04-25T22:24:54.521Z,10.43
2023-04-25T22:27:21.011Z,7.82
2023-04-25T22:29:47.889Z,10.52
2023-04-25T22:32:14.375Z,7.28
2023-04-25T22:34:41.199Z,7.60
2023-04-25T22:37:07.688Z,10.20
2023-04-25T22:39:34.523Z,9.40
2023-04-25T22:42:01.344Z,8.93
2023-04-25T22:44:27.809Z,11.05
2023-04-25T22:46:54.658Z,11.55
2023-04-25T22:49:21.142Z,8.88
2023-04-25T22:51:47.959Z,8.55
2023-04-25T22:54:14.490Z,8.65
2023-04-25T22:56:40.962Z,11.57
2023-04-25T22:59:07.760Z,7.60
2023-04-25T23:01:34.227Z,16.23
2023-04-25T23:04:01.222Z,7.88
2023-04-25T23:06:27.807Z,10.25
2023-04-25T23:08:54.687Z,8.40
2023-04-25T23:11:21.328Z,10.32
2023-04-25T23:13:48.313Z,8.13
2023-04-25T23:16:14.919Z,8.63
2023-04-25T23:18:41.371Z,10.45
2023-04-25T23:21:08.261Z,11.70
2023-04-25T23:23:35.870Z,9.70
2023-04-25T23:26:09.637Z,7.22
2023-04-25T23:28:37.142Z,7.45
2023-04-25T23:31:09.748Z,10.88
2023-04-25T23:33:36.321Z,13.73
2023-04-25T23:36:03.303Z,9.25
2023-04-25T23:38:30.178Z,10.10
2023-04-25T23:40:56.641Z,9.13
2023-04-25T23:43:23.524Z,10.48
2023-04-25T23:45:50.249Z,7.50
2023-04-25T23:48:17.169Z,10.38
2023-04-25T23:50:43.618Z,9.02
2023-04-25T23:53:10.704Z,8.25
2023-04-25T23:55:37.178Z,9.43
2023-04-25T23:58:03.973Z,8.35
